Terminal Aerodrome Forecast
Issued by NWS Cleveland, OH

Home | Current Version | Previous Version | Graphics & Text | Print | Product List | Glossary On
Versions: 1 2 3 4 5 6 7 8 9 10 11 12 13 14 15 16 17
044
FTUS41 KCLE 192300
TAFMFD
TAF
KMFD 192327Z 2000/2024 30010KT P6SM SCT025 OVC035
      TEMPO 2001/2005 BKN025
     FM201200 36008KT P6SM BKN035 OVC250
     FM201900 35008KT P6SM SCT050 OVC100=

USA.gov is the U.S. government's official web portal to all federal, state and local government web resources and services.